This is the latest recevied weather packets stored in our database for station/object HK6REC-21. If no packets are shown the sender has not sent any weather packets the latest 10 day(s).
| Time | Temp. | Humidity | Pressure | Rain* | Wind** | Luminosity | Snow |
|---|---|---|---|---|---|---|---|
| 1778025365 | 20.56° C | 82% | 1012 hPa | 0 mm | - | - | - |
| 1778024164 | 20.56° C | 82% | 1011 hPa | 0 mm | - | - | - |
| 1778022963 | 20.56° C | 82% | 1011 hPa | 0 mm | - | - | - |
| 1778021763 | 20.56° C | 82% | 1010 hPa | 0 mm | - | - | - |
| 1778020562 | 20.56° C | 82% | 1010 hPa | 0 mm | - | - | - |
| 1778019361 | 20.56° C | 82% | 1010 hPa | 0 mm | - | - | - |
| 1778018160 | 21.11° C | 83% | 1009 hPa | 0 mm | - | - | - |
| 1778016959 | 21.11° C | 83% | 1009 hPa | 0 mm | - | - | - |
| 1778015758 | 21.11° C | 83% | 1010 hPa | 0 mm | - | - | - |
| 1778014557 | 21.67° C | 83% | 1009 hPa | 0 mm | - | - | - |
| 1778013356 | 21.67° C | 83% | 1009 hPa | 0 mm | - | - | - |
| 1778012155 | 22.22° C | 83% | 1010 hPa | 0 mm | - | - | - |
| 1778010954 | 22.22° C | 83% | 1009 hPa | 0 mm | - | - | - |
| 1778009753 | 22.22° C | 83% | 1009 hPa | 0 mm | - | - | - |
| 1778008552 | 22.78° C | 83% | 1011 hPa | 0 mm | - | - | - |
| 1778007351 | 23.33° C | 81% | 1010 hPa | 0 mm | - | - | - |
| 1778006150 | 23.33° C | 81% | 1010 hPa | 0 mm | - | - | - |
| 1778004949 | 23.89° C | 80% | 1012 hPa | 0 mm | - | - | - |
| 1778003748 | 23.33° C | 83% | 1012 hPa | 0 mm | - | - | - |
| 1778002547 | 24.44° C | 83% | 1012 hPa | 0 mm | - | - | - |
| 1778001346 | 21.67° C | 91% | 1014 hPa | 0 mm | - | - | - |
| 1778000145 | 22.22° C | 92% | 1013 hPa | 0 mm | - | - | - |
| 1777998944 | 21.11° C | 93% | 1013 hPa | 0 mm | - | - | - |
| 1777997743 | 21.11° C | 93% | 1015 hPa | 0 mm | - | - | - |
| 1777996543 | 21.11° C | 94% | 1014 hPa | 0 mm | - | - | - |
* Rain latest hour (hover to see other rain measurements)
** Current wind speed in m/s (hover to see current wind gust speed)